Time;durP1;ratioP1;P1;durP2;ratioP2;P2;SDS_P1;SDS_P2;PMS_P1;PMS_P2;Temp;Humidity;BMP_temperature;BMP_pressure;BME280_temperature;BME280_humidity;BME280_pressure;Samples;Min_cycle;Max_cycle;Signal;HPM_P1;HPM_P2
2020/12/07 00:01:37;;;;;;;15.93;13.13;;;;;;;;;;5023140;28;20204;-80
2020/12/07 00:04:02;;;;;;;14.87;12.57;;;;;;;;;;5024737;28;20246;-80
2020/12/07 00:06:28;;;;;;;18.37;12.37;;;;;;;;;;5023757;28;20169;-80
2020/12/07 00:08:53;;;;;;;15.67;11.83;;;;;;;;;;5022965;28;20165;-81
2020/12/07 00:11:18;;;;;;;19.50;13.40;;;;;;;;;;5019641;28;20280;-80
2020/12/07 00:13:44;;;;;;;17.57;13.30;;;;;;;;;;5014019;28;20635;-80
2020/12/07 00:16:09;;;;;;;23.83;15.93;;;;;;;;;;5014200;28;20174;-79
2020/12/07 00:18:35;;;;;;;20.60;15.30;;;;;;;;;;5014964;28;20555;-79
2020/12/07 00:21:01;;;;;;;13.53;11.23;;;;;;;;;;5014476;28;20197;-80
2020/12/07 00:23:26;;;;;;;18.20;13.93;;;;;;;;;;5014315;28;20521;-80
2020/12/07 00:25:51;;;;;;;17.67;13.30;;;;;;;;;;5014784;28;20520;-80
2020/12/07 00:28:16;;;;;;;18.60;11.90;;;;;;;;;;5014143;28;20224;-80
2020/12/07 00:30:42;;;;;;;17.57;12.90;;;;;;;;;;5014158;28;20178;-80
2020/12/07 00:33:07;;;;;;;20.87;13.10;;;;;;;;;;5015057;28;20173;-80
2020/12/07 00:35:32;;;;;;;15.77;12.07;;;;;;;;;;5014210;28;20531;-80
2020/12/07 00:37:58;;;;;;;19.97;13.73;;;;;;;;;;5014444;28;20176;-80
2020/12/07 00:40:23;;;;;;;11.67;8.17;;;;;;;;;;5014377;28;20197;-80
2020/12/07 00:42:48;;;;;;;17.37;12.73;;;;;;;;;;5014282;28;20204;-80
2020/12/07 00:45:14;;;;;;;15.50;11.27;;;;;;;;;;5014519;28;20256;-80
2020/12/07 00:47:39;;;;;;;13.27;11.10;;;;;;;;;;5014300;28;20169;-80
2020/12/07 00:50:04;;;;;;;13.70;11.20;;;;;;;;;;5014221;28;20173;-80
2020/12/07 00:52:29;;;;;;;15.50;11.77;;;;;;;;;;5014457;28;20187;-80
2020/12/07 00:54:55;;;;;;;14.03;10.33;;;;;;;;;;5014135;28;20620;-80
2020/12/07 00:57:20;;;;;;;15.50;12.27;;;;;;;;;;5013970;28;20227;-80
2020/12/07 00:59:45;;;;;;;12.23;10.83;;;;;;;;;;5014416;28;20252;-80
2020/12/07 01:02:10;;;;;;;13.60;11.03;;;;;;;;;;5013738;28;20223;-80
2020/12/07 01:04:36;;;;;;;15.47;12.07;;;;;;;;;;5019574;28;20168;-79
2020/12/07 01:07:01;;;;;;;15.37;10.87;;;;;;;;;;5020246;28;20205;-80
2020/12/07 01:09:26;;;;;;;13.07;10.63;;;;;;;;;;5020364;28;20527;-80
2020/12/07 01:11:53;;;;;;;11.70;9.30;;;;;;;;;;5020509;28;20183;-79
2020/12/07 01:14:18;;;;;;;13.43;9.27;;;;;;;;;;5020244;28;20183;-79
2020/12/07 01:16:43;;;;;;;14.77;10.63;;;;;;;;;;5020782;28;20165;-80
2020/12/07 01:19:09;;;;;;;12.60;10.77;;;;;;;;;;5020211;28;20620;-80
2020/12/07 01:21:34;;;;;;;13.97;10.13;;;;;;;;;;5020470;28;20196;-80
2020/12/07 01:24:00;;;;;;;12.27;9.37;;;;;;;;;;5020809;28;20203;-80
2020/12/07 01:26:26;;;;;;;11.70;9.00;;;;;;;;;;5020176;28;20556;-80
2020/12/07 01:28:51;;;;;;;11.47;8.63;;;;;;;;;;5020195;28;20182;-80
2020/12/07 01:31:17;;;;;;;10.97;9.00;;;;;;;;;;5020107;28;20173;-80
2020/12/07 01:33:43;;;;;;;12.77;9.70;;;;;;;;;;5020587;28;20180;-80
2020/12/07 01:36:08;;;;;;;12.33;10.27;;;;;;;;;;5020860;28;20173;-80
2020/12/07 01:38:33;;;;;;;13.33;10.27;;;;;;;;;;5020273;28;20252;-80
2020/12/07 01:40:59;;;;;;;12.77;9.83;;;;;;;;;;5020187;28;20282;-79
2020/12/07 01:43:24;;;;;;;12.63;10.03;;;;;;;;;;5020488;28;20165;-80
2020/12/07 01:45:49;;;;;;;11.37;8.87;;;;;;;;;;5020028;28;20620;-79
2020/12/07 01:48:15;;;;;;;17.33;9.30;;;;;;;;;;5020213;28;20173;-79
2020/12/07 01:50:41;;;;;;;15.07;10.37;;;;;;;;;;5019906;28;20173;-79
2020/12/07 01:53:06;;;;;;;12.70;10.40;;;;;;;;;;5020691;28;20223;-80
2020/12/07 01:55:32;;;;;;;12.47;10.20;;;;;;;;;;5019892;28;20173;-79
2020/12/07 01:57:57;;;;;;;13.03;10.57;;;;;;;;;;5020605;28;20245;-80
2020/12/07 02:00:23;;;;;;;11.23;9.73;;;;;;;;;;5019826;28;20220;-79
2020/12/07 02:02:49;;;;;;;12.73;10.57;;;;;;;;;;5020326;28;20197;-80
2020/12/07 02:05:14;;;;;;;11.60;9.33;;;;;;;;;;5020041;28;20166;-79
2020/12/07 02:07:39;;;;;;;15.13;9.57;;;;;;;;;;5020370;28;20180;-79
2020/12/07 02:10:05;;;;;;;12.23;10.30;;;;;;;;;;5020295;28;20180;-79
2020/12/07 02:12:30;;;;;;;11.60;7.53;;;;;;;;;;5019870;28;20231;-80
2020/12/07 02:14:55;;;;;;;12.47;9.77;;;;;;;;;;5017842;28;20280;-80
2020/12/07 02:17:20;;;;;;;11.47;10.03;;;;;;;;;;5016574;28;20182;-80
2020/12/07 02:19:49;;;;;;;10.00;8.23;;;;;;;;;;5016784;28;20177;-80
2020/12/07 02:22:14;;;;;;;12.40;9.67;;;;;;;;;;5016721;28;20212;-80
2020/12/07 02:24:40;;;;;;;15.47;10.47;;;;;;;;;;5016769;28;20173;-80
2020/12/07 02:27:05;;;;;;;10.97;9.77;;;;;;;;;;5017163;28;20268;-80
2020/12/07 02:29:30;;;;;;;12.43;9.57;;;;;;;;;;5016378;28;20260;-80
2020/12/07 02:32:12;;;;;;;10.97;9.23;;;;;;;;;;5016678;28;20182;-79
2020/12/07 02:34:37;;;;;;;12.93;9.43;;;;;;;;;;5016887;28;20162;-79
2020/12/07 02:37:03;;;;;;;11.07;9.30;;;;;;;;;;5016809;28;20191;-79
2020/12/07 02:39:28;;;;;;;11.33;9.30;;;;;;;;;;5016278;28;20168;-79
2020/12/07 02:41:53;;;;;;;11.93;9.93;;;;;;;;;;5016245;28;20288;-79
2020/12/07 02:44:18;;;;;;;12.03;8.60;;;;;;;;;;5016561;28;20196;-79
2020/12/07 02:46:44;;;;;;;11.33;8.90;;;;;;;;;;5016150;28;20177;-79
2020/12/07 02:49:09;;;;;;;10.90;9.27;;;;;;;;;;5016896;28;20173;-79
2020/12/07 02:51:34;;;;;;;10.53;9.10;;;;;;;;;;5016394;28;20683;-79
2020/12/07 02:53:59;;;;;;;10.77;9.03;;;;;;;;;;5016135;28;20165;-79
2020/12/07 02:56:25;;;;;;;10.00;8.73;;;;;;;;;;5015918;28;20616;-79
2020/12/07 02:58:50;;;;;;;11.47;9.13;;;;;;;;;;5017262;28;20308;-79
2020/12/07 03:01:15;;;;;;;11.37;8.80;;;;;;;;;;5015758;28;20204;-79
2020/12/07 03:03:40;;;;;;;11.63;9.20;;;;;;;;;;5015801;28;20213;-79
2020/12/07 03:06:06;;;;;;;10.93;8.63;;;;;;;;;;5015786;28;20169;-79
2020/12/07 03:08:31;;;;;;;12.00;8.87;;;;;;;;;;5016380;28;20224;-79
2020/12/07 03:10:56;;;;;;;11.70;9.23;;;;;;;;;;5015727;28;20538;-79
2020/12/07 03:13:22;;;;;;;10.83;9.10;;;;;;;;;;5015929;28;20252;-79
2020/12/07 03:15:47;;;;;;;10.90;9.10;;;;;;;;;;5025530;28;20173;-80
2020/12/07 03:18:12;;;;;;;11.97;9.10;;;;;;;;;;5028537;28;20177;-79
2020/12/07 03:20:37;;;;;;;10.63;8.83;;;;;;;;;;5028513;28;20173;-79
2020/12/07 03:23:03;;;;;;;10.83;8.30;;;;;;;;;;5015709;28;20690;-79
2020/12/07 03:25:28;;;;;;;10.03;8.20;;;;;;;;;;5015342;28;20169;-79
2020/12/07 03:27:53;;;;;;;9.90;8.50;;;;;;;;;;5015193;28;20192;-79
2020/12/07 03:30:19;;;;;;;9.90;8.03;;;;;;;;;;5015615;28;20296;-79
2020/12/07 03:32:44;;;;;;;11.90;8.77;;;;;;;;;;5015245;28;20674;-80
2020/12/07 03:35:09;;;;;;;9.73;7.53;;;;;;;;;;5015469;28;20208;-80
2020/12/07 03:37:34;;;;;;;11.60;8.77;;;;;;;;;;5015496;28;20227;-80
2020/12/07 03:40:00;;;;;;;10.63;8.30;;;;;;;;;;5015586;28;20174;-80
2020/12/07 03:42:25;;;;;;;9.90;8.20;;;;;;;;;;5015191;28;20288;-80
2020/12/07 03:44:50;;;;;;;11.37;7.40;;;;;;;;;;5015249;28;20265;-79
2020/12/07 03:47:15;;;;;;;10.70;8.20;;;;;;;;;;5015488;28;20165;-80
2020/12/07 03:49:41;;;;;;;9.13;7.90;;;;;;;;;;5014959;28;20169;-80
2020/12/07 03:52:06;;;;;;;8.87;7.20;;;;;;;;;;5015212;28;20639;-79
2020/12/07 03:54:31;;;;;;;9.90;8.00;;;;;;;;;;5014965;28;20173;-80
2020/12/07 03:56:57;;;;;;;9.60;7.97;;;;;;;;;;5013586;28;20579;-80
2020/12/07 03:59:22;;;;;;;10.70;7.83;;;;;;;;;;5015715;28;20661;-80
2020/12/07 04:01:48;;;;;;;10.30;8.03;;;;;;;;;;5014637;28;20209;-79
2020/12/07 04:04:17;;;;;;;9.40;7.37;;;;;;;;;;5014930;28;20256;-80
2020/12/07 04:06:44;;;;;;;8.97;7.67;;;;;;;;;;5014959;28;20180;-79
2020/12/07 04:09:09;;;;;;;9.50;8.07;;;;;;;;;;5015369;28;20199;-79
2020/12/07 04:11:35;;;;;;;10.23;8.17;;;;;;;;;;5015203;28;20252;-79
2020/12/07 04:14:00;;;;;;;11.03;8.10;;;;;;;;;;5014662;28;20169;-79
2020/12/07 04:16:27;;;;;;;9.77;8.40;;;;;;;;;;5014427;28;20173;-79
2020/12/07 04:18:52;;;;;;;11.00;8.30;;;;;;;;;;5014793;28;20177;-79
2020/12/07 04:21:17;;;;;;;9.73;8.73;;;;;;;;;;5014375;28;20671;-79
2020/12/07 04:23:42;;;;;;;9.83;8.80;;;;;;;;;;5014674;28;20181;-79
2020/12/07 04:26:08;;;;;;;12.40;8.33;;;;;;;;;;5014522;28;20181;-79
2020/12/07 04:28:33;;;;;;;10.67;9.17;;;;;;;;;;5014330;28;20196;-79
2020/12/07 04:30:58;;;;;;;9.27;8.07;;;;;;;;;;5014558;28;20199;-79
2020/12/07 04:33:23;;;;;;;8.93;8.03;;;;;;;;;;5014219;28;20180;-79
2020/12/07 04:35:49;;;;;;;9.63;7.93;;;;;;;;;;5014215;28;20255;-79
2020/12/07 04:38:14;;;;;;;17.47;14.03;;;;;;;;;;5014131;28;20177;-79
2020/12/07 04:40:40;;;;;;;19.37;15.23;;;;;;;;;;5014307;28;20220;-79
2020/12/07 04:43:05;;;;;;;11.67;9.07;;;;;;;;;;5014092;28;20507;-79
2020/12/07 04:45:30;;;;;;;18.40;13.37;;;;;;;;;;5014300;28;20200;-79
2020/12/07 04:47:58;;;;;;;19.90;13.20;;;;;;;;;;5014766;28;20169;-79
2020/12/07 04:50:23;;;;;;;13.00;8.47;;;;;;;;;;5014255;28;20169;-80
2020/12/07 04:52:51;;;;;;;12.00;9.10;;;;;;;;;;5013905;28;20508;-79
2020/12/07 04:55:17;;;;;;;14.00;9.60;;;;;;;;;;5013977;28;20169;-80
2020/12/07 04:57:43;;;;;;;13.83;9.83;;;;;;;;;;5013832;28;20292;-80
2020/12/07 05:00:08;;;;;;;36.70;18.07;;;;;;;;;;5013861;28;20184;-80
2020/12/07 05:02:36;;;;;;;41.70;23.07;;;;;;;;;;5014031;28;20197;-79
2020/12/07 05:05:03;;;;;;;10.90;8.93;;;;;;;;;;5014668;28;20184;-79
2020/12/07 05:07:28;;;;;;;11.70;9.47;;;;;;;;;;5013798;28;20177;-79
2020/12/07 05:09:55;;;;;;;15.57;9.90;;;;;;;;;;5014299;28;20231;-79
2020/12/07 05:12:28;;;;;;;11.00;8.73;;;;;;;;;;5013979;28;20177;-79
2020/12/07 05:14:54;;;;;;;13.40;9.60;;;;;;;;;;5014794;28;20573;-79
2020/12/07 05:17:19;;;;;;;14.37;9.63;;;;;;;;;;5013995;28;20227;-79
2020/12/07 05:19:44;;;;;;;13.93;9.83;;;;;;;;;;5014198;28;20675;-79
2020/12/07 05:22:13;;;;;;;62.97;28.37;;;;;;;;;;5014053;28;20288;-79
2020/12/07 05:24:38;;;;;;;31.93;16.90;;;;;;;;;;5014453;28;20173;-79
2020/12/07 05:27:04;;;;;;;10.77;8.90;;;;;;;;;;5014132;28;20193;-79
2020/12/07 05:29:35;;;;;;;12.70;9.27;;;;;;;;;;5014016;28;20308;-79
2020/12/07 05:32:00;;;;;;;11.43;8.17;;;;;;;;;;5014396;28;20189;-79
2020/12/07 05:34:25;;;;;;;12.13;9.67;;;;;;;;;;5014494;28;20279;-79
2020/12/07 05:36:55;;;;;;;12.13;9.07;;;;;;;;;;5014174;28;20173;-79
2020/12/07 05:39:20;;;;;;;13.80;8.97;;;;;;;;;;5014027;28;20173;-79
2020/12/07 05:41:46;;;;;;;13.53;9.67;;;;;;;;;;5013955;28;20212;-80
2020/12/07 05:44:11;;;;;;;12.57;8.23;;;;;;;;;;5013884;28;20260;-80
2020/12/07 05:46:37;;;;;;;49.47;24.13;;;;;;;;;;5013892;28;20173;-80
2020/12/07 05:49:02;;;;;;;34.83;18.17;;;;;;;;;;5020709;28;20205;-80
2020/12/07 05:51:28;;;;;;;13.80;9.03;;;;;;;;;;5029000;28;20173;-79
2020/12/07 05:53:53;;;;;;;9.97;7.93;;;;;;;;;;5025510;28;20224;-79
2020/12/07 05:56:19;;;;;;;37.63;24.67;;;;;;;;;;5017572;28;20524;-80
2020/12/07 05:59:03;;;;;;;13.50;10.33;;;;;;;;;;5018069;28;20604;-79
2020/12/07 06:01:30;;;;;;;13.13;9.70;;;;;;;;;;5017567;28;20201;-79
2020/12/07 06:03:55;;;;;;;19.10;14.57;;;;;;;;;;5017463;28;20201;-79
2020/12/07 06:06:26;;;;;;;23.33;16.20;;;;;;;;;;5017134;28;20212;-79
2020/12/07 06:08:52;;;;;;;32.87;19.97;;;;;;;;;;5017171;28;20617;-79
2020/12/07 06:11:17;;;;;;;38.40;24.03;;;;;;;;;;5017086;28;20173;-79
2020/12/07 06:13:43;;;;;;;33.80;20.07;;;;;;;;;;5017053;28;20635;-80
2020/12/07 06:16:08;;;;;;;155.00;62.07;;;;;;;;;;5017007;28;20169;-79
2020/12/07 06:18:35;;;;;;;27.57;17.63;;;;;;;;;;5017006;28;20169;-79
2020/12/07 06:21:00;;;;;;;14.33;11.30;;;;;;;;;;5016615;28;20180;-79
2020/12/07 06:23:29;;;;;;;13.43;10.10;;;;;;;;;;5016757;28;20177;-79
2020/12/07 06:25:54;;;;;;;20.07;12.93;;;;;;;;;;5016807;28;20173;-79
2020/12/07 06:28:25;;;;;;;10.10;8.17;;;;;;;;;;5016299;28;20212;-79
2020/12/07 06:30:51;;;;;;;11.90;10.00;;;;;;;;;;5017028;28;20589;-79
2020/12/07 06:33:16;;;;;;;20.33;13.57;;;;;;;;;;5016402;28;20256;-79
2020/12/07 06:35:42;;;;;;;15.60;9.93;;;;;;;;;;5016929;28;20173;-79
2020/12/07 06:38:07;;;;;;;12.43;9.87;;;;;;;;;;5016245;28;20549;-79
2020/12/07 06:40:35;;;;;;;14.03;10.13;;;;;;;;;;5016844;28;20184;-79
2020/12/07 06:43:13;;;;;;;39.03;18.97;;;;;;;;;;5016310;28;20671;-79
2020/12/07 06:45:38;;;;;;;26.83;16.83;;;;;;;;;;5016616;28;20272;-79
2020/12/07 06:48:11;;;;;;;11.70;9.23;;;;;;;;;;5016112;28;20185;-79
2020/12/07 06:50:37;;;;;;;15.83;10.80;;;;;;;;;;5016201;28;20158;-79
2020/12/07 06:53:15;;;;;;;14.53;10.83;;;;;;;;;;5016436;28;20196;-79
2020/12/07 06:55:43;;;;;;;13.07;9.80;;;;;;;;;;5016853;28;20509;-79
2020/12/07 06:58:08;;;;;;;13.27;10.80;;;;;;;;;;5015704;28;20225;-79
2020/12/07 07:00:34;;;;;;;13.43;10.33;;;;;;;;;;5016051;28;20260;-79
2020/12/07 07:02:59;;;;;;;13.37;9.33;;;;;;;;;;5015867;28;20193;-79
2020/12/07 07:05:26;;;;;;;15.87;10.70;;;;;;;;;;5016119;28;20176;-79
2020/12/07 07:07:52;;;;;;;13.00;9.50;;;;;;;;;;5016043;28;20173;-79
2020/12/07 07:10:17;;;;;;;13.07;10.20;;;;;;;;;;5016080;28;20309;-79
2020/12/07 07:12:43;;;;;;;97.33;43.87;;;;;;;;;;5015975;28;20173;-79
2020/12/07 07:15:10;;;;;;;15.47;10.50;;;;;;;;;;5015960;28;20530;-79
2020/12/07 07:17:39;;;;;;;13.00;9.77;;;;;;;;;;5015895;28;20567;-79
2020/12/07 07:20:06;;;;;;;11.27;9.00;;;;;;;;;;5015858;28;20177;-79
2020/12/07 07:22:32;;;;;;;14.20;10.27;;;;;;;;;;5015458;28;20205;-79
2020/12/07 07:30:16;;;;;;;14.23;10.07;;;;;;;;;;5015725;28;20280;-79
2020/12/07 07:32:42;;;;;;;14.07;10.10;;;;;;;;;;5015450;28;20188;-79
2020/12/07 07:35:08;;;;;;;11.67;9.50;;;;;;;;;;5015618;28;20531;-79
2020/12/07 07:37:33;;;;;;;15.73;10.10;;;;;;;;;;5015435;28;20169;-79
2020/12/07 07:40:00;;;;;;;14.77;10.43;;;;;;;;;;5015112;28;20184;-79
2020/12/07 07:42:25;;;;;;;30.93;20.17;;;;;;;;;;5015297;28;20197;-79
2020/12/07 07:44:51;;;;;;;17.77;12.73;;;;;;;;;;5014965;28;20231;-80
2020/12/07 07:47:22;;;;;;;14.53;10.07;;;;;;;;;;5014947;28;20264;-79
2020/12/07 07:50:14;;;;;;;15.63;10.87;;;;;;;;;;5015247;28;20172;-79
2020/12/07 08:17:55;;;;;;;18.17;11.43;;;;;;;;;;5014535;28;20574;-79
2020/12/07 08:20:24;;;;;;;19.67;12.37;;;;;;;;;;5014254;28;20189;-79
2020/12/07 08:22:56;;;;;;;23.30;13.93;;;;;;;;;;5026726;28;20287;-80
2020/12/07 08:25:40;;;;;;;15.60;12.03;;;;;;;;;;5027046;28;20180;-80
2020/12/07 08:28:21;;;;;;;13.53;9.27;;;;;;;;;;5014420;28;20682;-80
2020/12/07 08:31:03;;;;;;;14.60;10.90;;;;;;;;;;5021210;28;20635;-80
2020/12/07 08:33:28;;;;;;;16.40;11.80;;;;;;;;;;5028181;28;20235;-79
2020/12/07 08:35:55;;;;;;;23.10;11.93;;;;;;;;;;5034147;28;20177;-79
2020/12/07 08:38:25;;;;;;;19.63;13.07;;;;;;;;;;5034084;28;20172;-79
2020/12/07 08:40:50;;;;;;;21.47;13.23;;;;;;;;;;5034284;28;20183;-79
2020/12/07 08:43:15;;;;;;;17.77;11.67;;;;;;;;;;5034303;28;20259;-79
2020/12/07 08:45:43;;;;;;;14.37;9.50;;;;;;;;;;5033748;28;20174;-79
2020/12/07 08:48:09;;;;;;;18.00;11.43;;;;;;;;;;5034015;28;20181;-79
2020/12/07 08:50:34;;;;;;;13.87;10.07;;;;;;;;;;5033959;28;20192;-79
2020/12/07 08:52:59;;;;;;;16.17;11.57;;;;;;;;;;5033652;28;20270;-79
2020/12/07 08:55:25;;;;;;;17.77;11.40;;;;;;;;;;5034385;28;20165;-79
2020/12/07 08:57:50;;;;;;;14.73;10.83;;;;;;;;;;5032714;28;20298;-80
2020/12/07 09:00:15;;;;;;;13.67;11.07;;;;;;;;;;5031713;28;20184;-80
2020/12/07 09:02:40;;;;;;;14.80;10.73;;;;;;;;;;5031746;28;20310;-79
2020/12/07 09:05:06;;;;;;;12.83;9.50;;;;;;;;;;5033206;28;20262;-80
2020/12/07 09:07:31;;;;;;;14.27;11.40;;;;;;;;;;5032017;28;20176;-80
2020/12/07 09:09:56;;;;;;;16.03;10.83;;;;;;;;;;5032533;28;20271;-79
2020/12/07 09:12:21;;;;;;;38.83;24.70;;;;;;;;;;5032872;28;20168;-80
2020/12/07 09:14:47;;;;;;;16.77;11.07;;;;;;;;;;5032956;28;20611;-79
2020/12/07 09:17:12;;;;;;;18.77;10.43;;;;;;;;;;5032110;28;20173;-79
2020/12/07 09:19:37;;;;;;;19.20;12.60;;;;;;;;;;5032234;28;20267;-79
2020/12/07 09:22:03;;;;;;;14.90;10.40;;;;;;;;;;5032410;28;20353;-79
2020/12/07 09:24:28;;;;;;;16.73;10.70;;;;;;;;;;5035107;28;20626;-79
2020/12/07 09:26:53;;;;;;;17.90;11.67;;;;;;;;;;5036470;28;20227;-79
2020/12/07 09:29:18;;;;;;;14.87;10.27;;;;;;;;;;5038014;28;20718;-79
2020/12/07 09:31:44;;;;;;;15.10;10.70;;;;;;;;;;5036412;28;20172;-79
2020/12/07 09:34:09;;;;;;;12.53;8.07;;;;;;;;;;5036367;28;20180;-79
2020/12/07 09:36:34;;;;;;;15.60;10.30;;;;;;;;;;5037809;28;20247;-79
2020/12/07 09:38:59;;;;;;;12.87;9.73;;;;;;;;;;5035674;28;20187;-79
2020/12/07 09:41:25;;;;;;;15.23;11.53;;;;;;;;;;5037393;28;20200;-79
2020/12/07 09:43:50;;;;;;;14.70;10.73;;;;;;;;;;5037469;28;20219;-79
2020/12/07 09:46:15;;;;;;;19.60;11.00;;;;;;;;;;5037380;28;20169;-79
2020/12/07 09:48:41;;;;;;;15.63;11.37;;;;;;;;;;5036630;28;20180;-79
2020/12/07 09:51:06;;;;;;;18.57;12.03;;;;;;;;;;5035564;28;20551;-80
2020/12/07 09:53:31;;;;;;;17.13;10.97;;;;;;;;;;5032263;28;20189;-80
2020/12/07 09:55:56;;;;;;;15.47;10.27;;;;;;;;;;5033380;28;20642;-81
2020/12/07 09:58:22;;;;;;;17.57;11.83;;;;;;;;;;5031344;28;20271;-79
2020/12/07 10:00:48;;;;;;;15.80;10.40;;;;;;;;;;5033276;28;20246;-80
2020/12/07 10:03:13;;;;;;;17.27;10.23;;;;;;;;;;5034250;28;20258;-80
2020/12/07 10:05:39;;;;;;;12.63;8.80;;;;;;;;;;5036398;28;20200;-80
2020/12/07 10:08:04;;;;;;;14.57;11.23;;;;;;;;;;5036684;28;20216;-80
2020/12/07 10:10:30;;;;;;;19.87;12.47;;;;;;;;;;5037138;28;20211;-79
2020/12/07 10:12:55;;;;;;;23.97;15.20;;;;;;;;;;5036508;28;20227;-79
2020/12/07 10:15:20;;;;;;;19.20;13.87;;;;;;;;;;5037103;28;20191;-79
2020/12/07 10:17:45;;;;;;;16.87;12.23;;;;;;;;;;5036448;28;20180;-79
2020/12/07 10:20:11;;;;;;;19.17;13.20;;;;;;;;;;5036060;28;20191;-80
2020/12/07 10:22:36;;;;;;;22.03;14.50;;;;;;;;;;5034892;28;20303;-80
2020/12/07 10:25:02;;;;;;;12.50;10.67;;;;;;;;;;5036605;28;20635;-79
2020/12/07 10:27:27;;;;;;;14.83;10.23;;;;;;;;;;5035963;28;20204;-79
2020/12/07 10:29:52;;;;;;;13.40;9.93;;;;;;;;;;5036846;28;20501;-79
2020/12/07 10:32:17;;;;;;;16.90;11.27;;;;;;;;;;5036221;28;20175;-79
2020/12/07 10:34:43;;;;;;;15.03;10.63;;;;;;;;;;5036192;28;20176;-80
2020/12/07 10:37:09;;;;;;;14.33;10.73;;;;;;;;;;5034887;28;20207;-80
2020/12/07 10:39:34;;;;;;;17.87;11.93;;;;;;;;;;5035870;28;20302;-80
2020/12/07 10:42:01;;;;;;;19.77;13.10;;;;;;;;;;5036713;28;20204;-80
2020/12/07 10:44:27;;;;;;;17.83;12.87;;;;;;;;;;5035942;28;20176;-80
2020/12/07 10:46:52;;;;;;;17.97;10.37;;;;;;;;;;5036606;28;20176;-79
2020/12/07 10:49:17;;;;;;;17.33;11.40;;;;;;;;;;5032853;28;20165;-80
2020/12/07 10:51:44;;;;;;;24.57;14.30;;;;;;;;;;5034066;28;20577;-80
2020/12/07 10:54:09;;;;;;;13.80;10.93;;;;;;;;;;5034410;28;20204;-79
2020/12/07 10:56:35;;;;;;;21.07;13.77;;;;;;;;;;5036102;28;20192;-79
2020/12/07 10:59:00;;;;;;;13.77;10.27;;;;;;;;;;5036542;28;20307;-79
2020/12/07 11:01:25;;;;;;;13.70;9.13;;;;;;;;;;5040774;28;20231;-80
2020/12/07 11:03:50;;;;;;;14.73;10.27;;;;;;;;;;5049031;28;20240;-80
2020/12/07 11:06:29;;;;;;;24.43;14.97;;;;;;;;;;5044583;28;20180;-79
2020/12/07 11:08:56;;;;;;;18.60;10.37;;;;;;;;;;5036159;28;20160;-79
2020/12/07 11:11:22;;;;;;;27.87;16.20;;;;;;;;;;5035450;28;20180;-80
2020/12/07 11:13:47;;;;;;;18.13;12.97;;;;;;;;;;5033173;28;20562;-79
2020/12/07 11:16:13;;;;;;;14.43;9.63;;;;;;;;;;5035393;28;20198;-79
2020/12/07 11:18:39;;;;;;;17.43;11.63;;;;;;;;;;5034833;28;20187;-80
2020/12/07 11:21:16;;;;;;;21.93;14.47;;;;;;;;;;5031590;28;20255;-80
2020/12/07 11:23:43;;;;;;;17.77;11.27;;;;;;;;;;5034994;28;20164;-80
2020/12/07 11:26:09;;;;;;;20.60;13.13;;;;;;;;;;5035314;28;20218;-80
2020/12/07 11:28:34;;;;;;;21.90;16.43;;;;;;;;;;5034973;28;20180;-79
2020/12/07 11:31:00;;;;;;;20.00;11.60;;;;;;;;;;5035235;28;20175;-79
2020/12/07 11:33:25;;;;;;;15.50;10.87;;;;;;;;;;5035542;28;20177;-79
2020/12/07 11:35:50;;;;;;;19.27;11.00;;;;;;;;;;5034471;28;20173;-79
2020/12/07 11:38:21;;;;;;;19.77;12.73;;;;;;;;;;5035433;28;20161;-79
2020/12/07 11:46:18;;;;;;;45.23;26.50;;;;;;;;;;5029089;28;20204;-79
2020/12/07 11:48:43;;;;;;;176.60;78.87;;;;;;;;;;5034396;28;20546;-79
2020/12/07 11:51:08;;;;;;;22.13;13.27;;;;;;;;;;5034787;28;20172;-79
2020/12/07 11:53:34;;;;;;;21.30;13.10;;;;;;;;;;5034629;28;20164;-79
2020/12/07 11:55:59;;;;;;;13.60;9.70;;;;;;;;;;5034599;28;20165;-79
2020/12/07 11:58:24;;;;;;;20.63;12.33;;;;;;;;;;5022873;28;20216;-80
2020/12/07 12:00:50;;;;;;;18.73;11.50;;;;;;;;;;5035286;28;20175;-79
2020/12/07 12:03:15;;;;;;;13.77;9.73;;;;;;;;;;5034195;28;20243;-79
2020/12/07 12:05:40;;;;;;;35.83;20.43;;;;;;;;;;5034682;28;20173;-79
2020/12/07 12:08:05;;;;;;;17.07;10.50;;;;;;;;;;5034591;28;20172;-79
2020/12/07 12:10:31;;;;;;;24.07;13.73;;;;;;;;;;5022578;28;20189;-80
2020/12/07 12:12:56;;;;;;;13.20;9.67;;;;;;;;;;5015029;28;20208;-79
2020/12/07 12:15:21;;;;;;;12.07;9.97;;;;;;;;;;5014363;28;20279;-79
2020/12/07 12:17:47;;;;;;;13.20;8.50;;;;;;;;;;5014668;28;20177;-79
2020/12/07 12:20:12;;;;;;;18.53;12.23;;;;;;;;;;5030393;28;20222;-79
2020/12/07 12:22:37;;;;;;;14.80;9.07;;;;;;;;;;5033619;28;20299;-80
2020/12/07 12:25:03;;;;;;;13.47;9.33;;;;;;;;;;5032120;28;20176;-79
2020/12/07 12:27:28;;;;;;;16.73;11.37;;;;;;;;;;5033647;28;20582;-79
2020/12/07 12:29:53;;;;;;;21.63;12.80;;;;;;;;;;5033905;28;20204;-79
2020/12/07 12:32:18;;;;;;;22.60;16.13;;;;;;;;;;5034134;28;20594;-79
2020/12/07 12:34:44;;;;;;;19.67;14.10;;;;;;;;;;5033855;28;20200;-79
2020/12/07 12:37:09;;;;;;;23.90;17.90;;;;;;;;;;5034163;28;20673;-79
2020/12/07 12:39:34;;;;;;;10.40;8.63;;;;;;;;;;5034054;28;20168;-79
2020/12/07 12:42:00;;;;;;;10.57;8.43;;;;;;;;;;5033935;28;20204;-79
2020/12/07 12:44:25;;;;;;;13.50;11.50;;;;;;;;;;5033592;28;20639;-79
2020/12/07 12:46:50;;;;;;;17.90;13.37;;;;;;;;;;5034045;28;20169;-79
2020/12/07 12:49:16;;;;;;;13.43;11.03;;;;;;;;;;5033559;28;20539;-79
2020/12/07 12:51:45;;;;;;;16.37;11.37;;;;;;;;;;5034287;28;20527;-79
2020/12/07 12:54:10;;;;;;;17.03;10.13;;;;;;;;;;5033862;28;20255;-79
2020/12/07 12:56:35;;;;;;;11.70;8.60;;;;;;;;;;5033641;28;20264;-79
2020/12/07 12:59:00;;;;;;;22.40;14.03;;;;;;;;;;5034381;28;20569;-79
2020/12/07 13:01:26;;;;;;;12.20;9.40;;;;;;;;;;5033735;28;20215;-79
2020/12/07 13:03:51;;;;;;;14.97;11.03;;;;;;;;;;5024066;28;20286;-79
2020/12/07 13:06:16;;;;;;;20.07;11.73;;;;;;;;;;5014389;28;20254;-80
2020/12/07 13:08:42;;;;;;;12.83;8.77;;;;;;;;;;5013497;28;20166;-80
2020/12/07 13:11:07;;;;;;;20.07;13.13;;;;;;;;;;5013095;28;20173;-80
2020/12/07 13:13:36;;;;;;;18.57;12.30;;;;;;;;;;5013057;28;20177;-80
2020/12/07 13:16:06;;;;;;;15.13;10.77;;;;;;;;;;5013082;28;20180;-80
2020/12/07 13:18:52;;;;;;;18.80;13.23;;;;;;;;;;5013339;28;20188;-80
2020/12/07 13:23:57;;;;;;;15.13;10.80;;;;;;;;;;5013787;28;20176;-80
2020/12/07 13:29:20;;;;;;;17.93;13.07;;;;;;;;;;5012199;28;20184;-80
2020/12/07 13:31:45;;;;;;;32.07;19.00;;;;;;;;;;5013876;28;20173;-80
2020/12/07 13:34:10;;;;;;;15.53;10.93;;;;;;;;;;5014109;28;20165;-80
2020/12/07 13:36:35;;;;;;;24.37;14.03;;;;;;;;;;5014130;28;20208;-80
2020/12/07 13:39:01;;;;;;;15.07;10.03;;;;;;;;;;5013747;28;20220;-79
2020/12/07 13:41:26;;;;;;;15.50;10.47;;;;;;;;;;5016812;28;20760;-80
2020/12/07 13:43:52;;;;;;;21.37;13.37;;;;;;;;;;5032684;28;20211;-80
2020/12/07 13:46:17;;;;;;;19.03;13.13;;;;;;;;;;5033260;28;20180;-80
2020/12/07 13:48:43;;;;;;;20.67;15.30;;;;;;;;;;5032865;28;20204;-80
2020/12/07 13:51:08;;;;;;;20.87;13.90;;;;;;;;;;5033577;28;20215;-80
2020/12/07 13:53:34;;;;;;;22.13;13.30;;;;;;;;;;5033387;28;20177;-79
2020/12/07 13:56:00;;;;;;;20.77;14.13;;;;;;;;;;5033335;28;20172;-79
2020/12/07 13:58:26;;;;;;;15.80;12.03;;;;;;;;;;5031971;28;20259;-79
2020/12/07 14:00:51;;;;;;;21.33;13.97;;;;;;;;;;5027039;28;20632;-79
2020/12/07 14:03:18;;;;;;;23.80;14.27;;;;;;;;;;5033069;28;20284;-79
2020/12/07 14:05:44;;;;;;;22.67;14.70;;;;;;;;;;5029282;28;20188;-79
2020/12/07 14:08:10;;;;;;;17.43;12.23;;;;;;;;;;5025810;28;20230;-79
2020/12/07 14:10:38;;;;;;;29.27;17.10;;;;;;;;;;5032936;28;20261;-79
2020/12/07 14:13:03;;;;;;;20.83;12.93;;;;;;;;;;5036313;28;20650;-79
2020/12/07 14:15:29;;;;;;;15.90;11.30;;;;;;;;;;5036222;28;20217;-79
2020/12/07 14:23:23;;;;;;;17.50;10.77;;;;;;;;;;5034250;28;20608;-79
2020/12/07 14:26:00;;;;;;;15.10;10.03;;;;;;;;;;5030628;28;20519;-79
2020/12/07 14:41:43;;;;;;;18.87;11.93;;;;;;;;;;5016516;28;20554;-79
2020/12/07 14:44:08;;;;;;;19.10;11.90;;;;;;;;;;5016744;28;20280;-79
2020/12/07 14:46:33;;;;;;;17.67;12.17;;;;;;;;;;5025820;28;20176;-79
2020/12/07 14:48:59;;;;;;;20.53;12.07;;;;;;;;;;5028527;28;20176;-79
2020/12/07 14:54:01;;;;;;;17.83;12.57;;;;;;;;;;5029515;28;20234;-79
2020/12/07 15:02:07;;;;;;;18.63;12.67;;;;;;;;;;5034520;28;20285;-79
2020/12/07 15:07:14;;;;;;;17.00;12.57;;;;;;;;;;5016037;28;20188;-80
2020/12/07 15:15:07;;;;;;;23.47;14.57;;;;;;;;;;5017240;28;20168;-79
2020/12/07 15:17:32;;;;;;;26.90;15.13;;;;;;;;;;5031141;28;20180;-79
2020/12/07 15:19:57;;;;;;;22.67;15.60;;;;;;;;;;5035123;28;20180;-79
2020/12/07 15:22:23;;;;;;;19.23;13.53;;;;;;;;;;5034587;28;20204;-79
2020/12/07 15:24:48;;;;;;;21.20;13.03;;;;;;;;;;5033228;28;20646;-80
2020/12/07 15:27:14;;;;;;;23.57;15.87;;;;;;;;;;5033420;28;20211;-80
2020/12/07 15:29:39;;;;;;;21.30;14.47;;;;;;;;;;5032031;28;20172;-81
2020/12/07 15:32:05;;;;;;;23.13;15.23;;;;;;;;;;5018180;28;20189;-80